Time;durP1;ratioP1;P1;durP2;ratioP2;P2;SDS_P1;SDS_P2;PMS_P1;PMS_P2;Temp;Humidity;BMP_temperature;BMP_pressure;BME280_temperature;BME280_humidity;BME280_pressure;Samples;Min_cycle;Max_cycle;Signal;HPM_P1;HPM_P2
2023/04/02 00:00:15;;;;;;;;;19.80;19.60;;;;;8.85;61.76;98430.28;5067800;28;8847;-76
2023/04/02 00:03:07;;;;;;;;;13.60;12.40;;;;;8.93;64.54;98441.38;4994329;28;9004;-77
2023/04/02 00:05:50;;;;;;;;;21.00;18.40;;;;;9.03;64.08;98437.53;4991644;28;8870;-76
2023/04/02 00:08:28;;;;;;;;;20.20;16.00;;;;;8.99;64.49;98442.94;5007999;28;8904;-76
2023/04/02 00:10:59;;;;;;;;;16.20;15.20;;;;;8.94;64.97;98437.00;5024361;28;8890;-77
2023/04/02 00:13:35;;;;;;;;;18.20;16.20;;;;;8.96;64.19;98436.03;5027812;28;9660;-76
2023/04/02 00:16:06;;;;;;;;;20.20;19.20;;;;;8.94;64.73;98443.09;5002022;28;8860;-76
2023/04/02 00:18:42;;;;;;;;;22.40;21.00;;;;;8.93;64.05;98436.13;5007833;28;8863;-77
2023/04/02 00:21:19;;;;;;;;;23.60;21.00;;;;;8.91;64.49;98439.69;4975442;28;8921;-77
2023/04/02 00:23:50;;;;;;;;;19.40;19.40;;;;;8.92;63.76;98444.03;4975825;28;8933;-80
2023/04/02 00:26:25;;;;;;;;;18.80;16.80;;;;;8.89;63.07;98437.13;4977056;28;8951;-76
2023/04/02 00:28:55;;;;;;;;;21.20;17.00;;;;;8.91;64.79;98434.47;4968946;28;8876;-77
2023/04/02 00:31:25;;;;;;;;;14.40;14.40;;;;;8.91;64.99;98442.31;4972248;28;8877;-76
2023/04/02 00:33:55;;;;;;;;;19.20;16.80;;;;;8.82;64.39;98441.72;4988214;28;8912;-77
2023/04/02 00:36:29;;;;;;;;;16.80;14.20;;;;;8.89;64.12;98437.13;4972027;28;8909;-77
2023/04/02 00:39:01;;;;;;;;;16.40;16.40;;;;;8.82;64.27;98433.84;4971988;28;8862;-77
2023/04/02 00:41:35;;;;;;;;;19.60;18.60;;;;;8.90;64.41;98435.38;5007585;28;8863;-78
2023/04/02 00:44:05;;;;;;;;;16.20;16.20;;;;;8.91;64.41;98434.47;4991362;28;8898;-76
2023/04/02 00:46:45;;;;;;;;;17.60;15.60;;;;;9.02;64.34;98425.34;4969601;28;8835;-76
2023/04/02 00:49:23;;;;;;;;;16.60;15.00;;;;;8.91;63.80;98432.69;5067230;28;8910;-76
2023/04/02 00:51:56;;;;;;;;;17.80;15.20;;;;;8.95;64.25;98436.06;5050743;28;8855;-76
2023/04/02 00:54:32;;;;;;;;;15.80;14.80;;;;;9.01;64.36;98436.75;5050945;28;9586;-76
2023/04/02 00:57:01;;;;;;;;;15.60;14.20;;;;;8.94;64.46;98439.63;5050479;28;8894;-78
2023/04/02 00:59:34;;;;;;;;;12.60;12.60;;;;;8.97;64.37;98440.38;5089772;28;8898;-75
2023/04/02 01:02:25;;;;;;;;;14.20;13.40;;;;;9.10;64.63;98447.81;5071911;28;9717;-77
2023/04/02 01:04:57;;;;;;;;;17.40;14.40;;;;;8.92;63.34;98434.41;5072448;28;8963;-78
2023/04/02 01:07:44;;;;;;;;;16.00;15.40;;;;;9.02;64.77;98445.47;5076803;28;8870;-77
2023/04/02 01:10:40;;;;;;;;;16.00;15.40;;;;;9.14;63.73;98446.81;5097693;28;9628;-77
2023/04/02 01:13:21;;;;;;;;;9.20;9.20;;;;;8.95;61.02;98443.94;5069494;28;8866;-76
2023/04/02 01:15:54;;;;;;;;;15.60;15.40;;;;;8.73;62.33;98442.00;5087406;28;8847;-76
2023/04/02 01:18:35;;;;;;;;;11.80;11.60;;;;;8.84;62.67;98442.53;5067772;28;9632;-76
2023/04/02 01:21:21;;;;;;;;;14.20;11.80;;;;;8.83;62.28;98440.78;5067884;28;8881;-76
2023/04/02 01:24:01;;;;;;;;;15.00;14.00;;;;;8.86;64.15;98439.84;5049912;28;8988;-77
2023/04/02 01:26:45;;;;;;;;;18.80;14.60;;;;;8.77;62.47;98446.22;5067803;28;8842;-76
2023/04/02 01:29:18;;;;;;;;;14.40;10.60;;;;;8.74;63.74;98448.97;5051253;28;8967;-76
2023/04/02 01:31:51;;;;;;;;;13.60;11.80;;;;;8.74;64.08;98451.59;5034121;28;8836;-77
2023/04/02 01:34:23;;;;;;;;;12.60;11.40;;;;;8.71;64.05;98456.06;5060242;28;8951;-78
2023/04/02 01:37:21;;;;;;;;;13.00;11.00;;;;;8.75;63.35;98449.81;5093210;28;10012;-76
2023/04/02 01:40:10;;;;;;;;;11.40;11.40;;;;;8.81;62.03;98447.00;5070874;28;9647;-77
2023/04/02 01:42:46;;;;;;;;;11.00;10.00;;;;;8.65;62.53;98449.25;5072836;28;8818;-77
2023/04/02 01:45:20;;;;;;;;;11.60;11.20;;;;;8.71;63.77;98456.91;5050733;28;8862;-78
2023/04/02 01:47:50;;;;;;;;;11.80;11.00;;;;;8.72;63.40;98455.16;5032614;28;8878;-77
2023/04/02 01:50:30;;;;;;;;;11.40;10.20;;;;;8.73;63.32;98457.72;5086591;28;8988;-77
2023/04/02 01:53:02;;;;;;;;;9.60;9.20;;;;;8.51;62.07;98454.88;5067714;28;8846;-77
2023/04/02 01:55:38;;;;;;;;;13.60;12.00;;;;;8.67;63.37;98438.69;5054914;28;8844;-77
2023/04/02 01:58:11;;;;;;;;;15.20;14.40;;;;;8.70;63.77;98443.84;5087686;28;8866;-78
2023/04/02 02:00:45;;;;;;;;;14.80;11.60;;;;;8.77;63.36;98453.25;5104704;28;8844;-79
2023/04/02 02:03:16;;;;;;;;;15.00;14.80;;;;;8.78;63.09;98454.94;5104184;28;8942;-78
2023/04/02 02:05:45;;;;;;;;;14.60;12.20;;;;;8.80;63.37;98447.91;5118834;27;8857;-76
2023/04/02 02:08:29;;;;;;;;;15.20;14.20;;;;;8.91;63.92;98453.66;5086892;28;8853;-76
2023/04/02 02:10:58;;;;;;;;;15.00;13.40;;;;;8.77;62.67;98445.38;5086949;28;8892;-75
2023/04/02 02:13:27;;;;;;;;;12.20;10.60;;;;;8.81;63.21;98447.00;5068678;28;8899;-76
2023/04/02 02:15:59;;;;;;;;;13.40;11.20;;;;;8.85;63.50;98453.84;5068737;28;8867;-76
2023/04/02 02:18:29;;;;;;;;;9.60;9.60;;;;;8.81;63.27;98454.84;5103526;28;8851;-76
2023/04/02 02:21:03;;;;;;;;;15.20;13.60;;;;;8.87;63.25;98462.53;5070697;28;8898;-77
2023/04/02 02:23:32;;;;;;;;;10.80;10.60;;;;;8.87;63.11;98459.06;5032921;28;9612;-78
2023/04/02 02:26:01;;;;;;;;;14.40;12.20;;;;;8.79;63.13;98461.91;5066547;28;9020;-75
2023/04/02 02:28:33;;;;;;;;;11.00;10.20;;;;;8.82;62.74;98453.97;5066529;28;8854;-75
2023/04/02 02:31:07;;;;;;;;;15.00;15.00;;;;;8.90;62.96;98458.97;5049920;28;8846;-75
2023/04/02 02:33:42;;;;;;;;;11.00;11.00;;;;;8.63;61.49;98454.53;5066244;28;8870;-76
2023/04/02 02:36:21;;;;;;;;;12.40;12.40;;;;;8.61;61.59;98455.47;5066321;28;8964;-75
2023/04/02 02:38:56;;;;;;;;;12.00;10.80;;;;;8.55;62.68;98463.50;5086723;28;8850;-77
2023/04/02 02:41:37;;;;;;;;;10.60;10.20;;;;;8.72;63.51;98460.38;5083045;28;8884;-77
2023/04/02 02:44:15;;;;;;;;;12.40;11.40;;;;;8.81;63.06;98457.47;5072204;28;8839;-77
2023/04/02 02:46:50;;;;;;;;;13.40;11.80;;;;;8.83;62.76;98458.28;5083475;28;8932;-76
2023/04/02 02:49:26;;;;;;;;;11.20;11.20;;;;;8.83;63.22;98453.03;5049781;28;8862;-75
2023/04/02 02:52:00;;;;;;;;;11.00;11.00;;;;;8.86;62.75;98458.19;5100502;28;8950;-75
2023/04/02 02:54:41;;;;;;;;;11.00;11.00;;;;;8.89;62.54;98460.72;5058209;28;8862;-75
2023/04/02 02:57:14;;;;;;;;;14.80;13.60;;;;;8.76;61.94;98462.00;5094115;28;8936;-75
2023/04/02 02:59:45;;;;;;;;;13.40;12.80;;;;;8.77;62.86;98466.34;5103496;28;8864;-78
2023/04/02 03:02:16;;;;;;;;;13.40;12.00;;;;;8.77;62.43;98455.88;5120397;28;8852;-76
2023/04/02 03:04:50;;;;;;;;;11.20;11.20;;;;;8.58;61.04;98472.13;5102238;28;8859;-75
2023/04/02 03:07:20;;;;;;;;;12.60;10.20;;;;;7.92;60.29;98470.53;5049137;28;8864;-76
2023/04/02 03:09:59;;;;;;;;;10.40;9.40;;;;;7.36;61.73;98478.94;5082321;28;8866;-75
2023/04/02 03:12:41;;;;;;;;;10.60;8.80;;;;;7.82;61.83;98478.63;5065480;28;8888;-76
2023/04/02 03:15:18;;;;;;;;;10.00;10.00;;;;;7.99;63.35;98479.94;5024968;28;8964;-75
2023/04/02 03:17:53;;;;;;;;;11.00;9.20;;;;;8.22;63.05;98474.91;5085991;28;8851;-77
2023/04/02 03:20:27;;;;;;;;;10.60;10.20;;;;;8.35;62.49;98483.31;5085935;28;8862;-76
2023/04/02 03:23:02;;;;;;;;;8.80;7.80;;;;;8.33;62.40;98481.66;5121266;27;8851;-77
2023/04/02 03:25:38;;;;;;;;;11.20;8.80;;;;;8.49;62.92;98488.13;5091010;28;8835;-76
2023/04/02 03:28:14;;;;;;;;;14.40;11.60;;;;;8.58;63.44;98490.47;5092693;28;8963;-78
2023/04/02 03:30:49;;;;;;;;;13.60;13.60;;;;;8.71;63.56;98490.13;5053097;28;8995;-75
2023/04/02 03:33:26;;;;;;;;;15.00;15.00;;;;;8.62;62.12;98494.72;5052768;28;9608;-78
2023/04/02 03:36:03;;;;;;;;;12.20;12.20;;;;;8.44;59.87;98492.66;5088210;28;8848;-76
2023/04/02 03:38:43;;;;;;;;;14.00;12.40;;;;;8.59;61.57;98492.22;5096268;28;8955;-76
2023/04/02 03:41:20;;;;;;;;;13.60;11.60;;;;;8.67;62.79;98491.97;5066377;28;8863;-78
2023/04/02 03:43:53;;;;;;;;;12.00;11.60;;;;;8.66;61.10;98498.09;5049048;28;8863;-75
2023/04/02 03:46:27;;;;;;;;;10.60;10.00;;;;;8.52;60.74;98498.53;5031739;28;8888;-77
2023/04/02 03:49:03;;;;;;;;;9.80;9.20;;;;;8.32;60.25;98499.09;5048323;28;8868;-77
2023/04/02 03:51:38;;;;;;;;;10.60;9.20;;;;;7.33;60.46;98485.13;5048426;28;8852;-79
2023/04/02 03:54:14;;;;;;;;;7.40;5.00;;;;;7.26;60.15;98496.63;5031668;28;9015;-76
2023/04/02 03:56:46;;;;;;;;;9.40;9.40;;;;;7.22;60.74;98497.59;5063456;28;8854;-79
2023/04/02 03:59:33;;;;;;;;;10.00;9.00;;;;;7.71;62.24;98496.38;5054783;28;8886;-77
2023/04/02 04:02:14;;;;;;;;;7.20;6.20;;;;;8.03;63.43;98497.28;5034914;28;8853;-80
2023/04/02 04:04:48;;;;;;;;;11.00;10.00;;;;;8.16;62.61;98500.41;5004424;28;8887;-78
2023/04/02 04:07:23;;;;;;;;;10.00;9.20;;;;;8.18;61.92;98509.94;5049764;28;8858;-77
2023/04/02 04:09:53;;;;;;;;;11.60;10.60;;;;;8.32;62.71;98514.81;5031870;28;8882;-79
2023/04/02 04:12:28;;;;;;;;;12.60;10.60;;;;;8.50;62.84;98517.81;5051919;28;8850;-75
2023/04/02 04:15:05;;;;;;;;;13.00;13.00;;;;;8.57;62.94;98516.72;5033300;28;8858;-75
2023/04/02 04:17:50;;;;;;;;;15.40;11.60;;;;;8.59;61.71;98515.78;5044747;28;8846;-78
2023/04/02 04:20:26;;;;;;;;;12.80;11.00;;;;;8.64;61.66;98519.09;5050816;28;8873;-76
2023/04/02 04:23:09;;;;;;;;;11.80;10.40;;;;;8.75;62.02;98526.66;5049590;28;8886;-76
2023/04/02 04:25:39;;;;;;;;;14.80;11.80;;;;;8.63;62.21;98522.66;5052912;28;8969;-76
2023/04/02 04:28:24;;;;;;;;;12.00;12.00;;;;;8.78;62.50;98530.94;5056177;28;8856;-77
2023/04/02 04:31:00;;;;;;;;;15.60;15.00;;;;;8.80;61.94;98524.75;5044512;28;8862;-78
2023/04/02 04:33:39;;;;;;;;;16.60;15.00;;;;;8.80;62.19;98529.16;5095237;28;8917;-76
2023/04/02 04:36:26;;;;;;;;;17.80;17.80;;;;;8.81;61.18;98525.63;5041075;28;8867;-76
2023/04/02 04:39:06;;;;;;;;;13.60;13.60;;;;;8.64;60.15;98519.09;5073000;28;8863;-77
2023/04/02 04:41:41;;;;;;;;;16.80;15.80;;;;;8.68;61.45;98530.34;5078088;28;8975;-76
2023/04/02 04:44:17;;;;;;;;;51.50;44.00;;;;;8.79;61.93;98524.81;5089655;28;8886;-76
2023/04/02 04:46:56;;;;;;;;;28.75;27.50;;;;;8.86;62.34;98531.59;5068852;28;8880;-77
2023/04/02 04:49:31;;;;;;;;;24.20;22.80;;;;;8.91;62.29;98531.44;5108310;27;8954;-76
2023/04/02 04:52:10;;;;;;;;;10.40;10.00;;;;;9.07;62.66;98526.59;5097837;28;10048;-75
2023/04/02 04:54:40;;;;;;;;;16.00;13.60;;;;;8.94;61.41;98534.81;5083879;28;8848;-75
2023/04/02 04:57:22;;;;;;;;;15.20;14.40;;;;;9.10;62.25;98529.09;5084221;28;8907;-77
2023/04/02 04:59:58;;;;;;;;;20.00;18.40;;;;;9.09;62.24;98537.88;5112215;27;8848;-77
2023/04/02 05:02:34;;;;;;;;;19.20;16.80;;;;;9.15;62.45;98538.53;5056382;28;8812;-78
2023/04/02 05:05:04;;;;;;;;;15.40;15.20;;;;;9.11;61.74;98536.06;5076421;28;8866;-76
2023/04/02 05:07:45;;;;;;;;;22.20;20.60;;;;;9.32;62.30;98537.16;5098409;28;8959;-77
2023/04/02 05:10:23;;;;;;;;;13.80;13.80;;;;;9.35;62.90;98542.31;5099196;28;8866;-76
2023/04/02 05:12:57;;;;;;;;;20.40;19.40;;;;;9.40;62.75;98541.25;5059271;28;8858;-76
2023/04/02 05:15:30;;;;;;;;;21.80;20.40;;;;;9.45;62.18;98550.75;5095813;28;8831;-77
2023/04/02 05:18:13;;;;;;;;;91.33;70.00;;;;;9.60;62.67;98560.75;5052055;28;9006;-80
2023/04/02 05:20:48;;;;;;;;;25.60;24.00;;;;;9.59;61.69;98557.28;5039850;28;9332;-78
2023/04/02 05:23:24;;;;;;;;;37.00;33.75;;;;;9.64;61.26;98565.00;5033962;28;8984;-78
2023/04/02 05:25:58;;;;;;;;;20.40;17.80;;;;;9.70;60.96;98561.31;5058963;28;8915;-76
2023/04/02 05:28:35;;;;;;;;;23.20;21.20;;;;;9.82;61.64;98563.53;5087610;28;8851;-76
2023/04/02 05:31:11;;;;;;;;;26.20;24.20;;;;;9.82;60.85;98574.88;5070510;28;8875;-77
2023/04/02 05:33:46;;;;;;;;;23.20;21.60;;;;;9.87;61.71;98566.84;5056623;28;8887;-76
2023/04/02 05:36:20;;;;;;;;;24.80;24.60;;;;;9.86;60.91;98567.78;5090993;28;8863;-77
2023/04/02 05:38:56;;;;;;;;;39.00;35.75;;;;;9.88;59.65;98573.81;5094666;28;8836;-75
2023/04/02 05:41:43;;;;;;;;;35.80;32.80;;;;;9.91;59.99;98580.72;5077997;28;8848;-77
2023/04/02 05:44:21;;;;;;;;;23.60;18.80;;;;;9.96;60.16;98576.19;5061723;28;9624;-80
2023/04/02 05:46:56;;;;;;;;;18.80;18.80;;;;;9.76;58.67;98582.97;5060601;28;9568;-78
2023/04/02 05:49:35;;;;;;;;;17.40;16.20;;;;;9.93;60.10;98584.16;5099894;28;8852;-80
2023/04/02 05:52:08;;;;;;;;;30.20;22.60;;;;;9.80;58.57;98588.94;5087514;28;8894;-78
2023/04/02 05:54:44;;;;;;;;;36.50;33.25;;;;;9.85;58.60;98584.41;5120524;27;8987;-76
2023/04/02 05:57:20;;;;;;;;;21.00;21.00;;;;;9.87;59.22;98581.75;5078938;28;8847;-77
2023/04/02 06:00:05;;;;;;;;;54.50;45.50;;;;;10.07;60.69;98581.94;5102817;27;8893;-75
2023/04/02 06:02:51;;;;;;;;;27.00;23.80;;;;;10.20;59.52;98579.75;5086040;28;8820;-76
2023/04/02 06:05:26;;;;;;;;;21.80;19.60;;;;;10.34;59.32;98585.34;5045007;28;8841;-75
2023/04/02 06:08:01;;;;;;;;;24.20;21.20;;;;;10.49;58.75;98589.19;5064797;28;8930;-76
2023/04/02 06:10:35;;;;;;;;;20.40;19.40;;;;;10.28;57.83;98582.09;5087110;28;8870;-76
2023/04/02 06:13:07;;;;;;;;;19.00;19.00;;;;;10.33;57.06;98593.28;5069558;28;8844;-75
2023/04/02 06:15:40;;;;;;;;;19.80;19.20;;;;;10.28;57.11;98589.97;5064040;28;8961;-74
2023/04/02 06:18:22;;;;;;;;;70.75;54.75;;;;;10.39;58.40;98598.34;5082320;28;8870;-77
2023/04/02 06:20:52;;;;;;;;;28.80;27.40;;;;;10.58;58.61;98601.16;5091409;28;8893;-77
2023/04/02 06:23:24;;;;;;;;;27.20;22.40;;;;;10.58;58.68;98602.00;5099711;28;8969;-75
2023/04/02 06:26:01;;;;;;;;;24.60;21.40;;;;;10.71;58.48;98615.56;5047446;28;8849;-75
2023/04/02 06:28:38;;;;;;;;;23.40;21.80;;;;;10.76;57.97;98618.94;5050202;28;8847;-75
2023/04/02 06:31:13;;;;;;;;;29.40;25.60;;;;;10.92;58.79;98611.31;5064263;28;8887;-76
2023/04/02 06:33:43;;;;;;;;;29.60;26.60;;;;;11.07;59.03;98609.03;5064547;28;8876;-76
2023/04/02 06:36:15;;;;;;;;;24.40;23.20;;;;;11.10;57.58;98608.91;5031304;28;8859;-75
2023/04/02 06:38:45;;;;;;;;;25.20;23.40;;;;;11.25;57.75;98604.84;5064146;28;8950;-78
2023/04/02 06:41:20;;;;;;;;;21.80;20.60;;;;;11.29;55.17;98601.16;5041098;28;8992;-76
2023/04/02 06:44:15;;;;;;;;;64.00;50.00;;;;;11.18;57.06;98609.47;5078018;28;8844;-76
2023/04/02 06:47:04;;;;;;;;;27.40;22.80;;;;;11.12;56.29;98612.34;5046186;28;8883;-78
2023/04/02 06:49:39;;;;;;;;;18.80;18.80;;;;;11.06;57.04;98613.41;5048877;28;8877;-74
2023/04/02 06:52:16;;;;;;;;;25.00;21.20;;;;;10.88;53.89;98614.97;5014119;28;8888;-79
2023/04/02 06:54:47;;;;;;;;;23.40;22.00;;;;;10.87;55.45;98615.88;5013373;28;8880;-76
2023/04/02 06:57:18;;;;;;;;;24.20;20.60;;;;;10.95;56.42;98616.47;5006991;28;8884;-74
2023/04/02 06:59:49;;;;;;;;;17.40;15.60;;;;;10.87;54.94;98623.78;4987507;28;8867;-78
2023/04/02 07:02:32;;;;;;;;;20.60;16.80;;;;;10.82;52.74;98622.22;4938529;28;8948;-73
2023/04/02 07:05:07;;;;;;;;;17.00;14.00;;;;;9.97;55.51;98638.25;5030648;28;8847;-75
2023/04/02 07:07:40;;;;;;;;;31.20;26.80;;;;;10.70;57.00;98632.25;5030720;28;9046;-76
2023/04/02 07:10:12;;;;;;;;;18.40;17.80;;;;;11.05;57.17;98632.75;5026265;28;10101;-75
2023/04/02 07:12:42;;;;;;;;;14.60;12.40;;;;;10.73;52.93;98636.56;5010257;28;9006;-74
2023/04/02 07:15:15;;;;;;;;;12.80;11.60;;;;;11.06;55.85;98628.34;5027026;28;8951;-76
2023/04/02 07:17:44;;;;;;;;;11.60;9.00;;;;;11.47;56.40;98628.53;5026715;28;8851;-74
2023/04/02 07:20:25;;;;;;;;;11.60;9.60;;;;;11.61;54.96;98634.09;4995435;28;8842;-74
2023/04/02 07:22:55;;;;;;;;;17.40;14.80;;;;;11.58;54.84;98626.34;5028202;28;8907;-73
2023/04/02 07:25:26;;;;;;;;;7.20;7.00;;;;;11.08;53.04;98634.41;5043970;28;9585;-73
2023/04/02 07:27:56;;;;;;;;;7.80;7.80;;;;;11.27;50.49;98637.19;5033106;28;8843;-76
2023/04/02 07:30:25;;;;;;;;;6.00;6.00;;;;;9.70;53.71;98651.38;5065474;28;8920;-77
2023/04/02 07:32:54;;;;;;;;;7.40;7.40;;;;;9.73;54.91;98655.69;5046174;28;8855;-76
2023/04/02 07:35:23;;;;;;;;;6.80;6.80;;;;;9.47;53.42;98662.56;5073494;28;9611;-75
2023/04/02 07:37:52;;;;;;;;;3.40;3.00;;;;;9.16;55.46;98657.41;5064601;28;8846;-75
2023/04/02 07:40:23;;;;;;;;;9.20;7.40;;;;;9.90;56.62;98657.78;5065681;28;8834;-76
2023/04/02 07:42:51;;;;;;;;;6.20;4.40;;;;;10.50;55.79;98664.50;5069021;28;9047;-76
2023/04/02 07:45:22;;;;;;;;;9.20;6.00;;;;;11.02;56.98;98653.91;5014421;28;8850;-74
2023/04/02 07:47:51;;;;;;;;;3.40;3.40;;;;;11.17;53.01;98660.38;5066202;28;8877;-75
2023/04/02 07:50:20;;;;;;;;;6.40;4.00;;;;;11.29;53.65;98664.28;5082972;28;8963;-77
2023/04/02 07:52:49;;;;;;;;;5.60;5.60;;;;;11.56;50.71;98665.88;5085005;28;8871;-74
2023/04/02 07:55:18;;;;;;;;;4.00;4.00;;;;;11.87;52.60;98654.16;5070845;28;8881;-76
2023/04/02 07:57:52;;;;;;;;;13.40;13.40;;;;;11.84;51.18;98653.41;5079381;28;8940;-74
2023/04/02 08:00:23;;;;;;;;;7.80;7.00;;;;;12.24;51.81;98657.91;5084665;28;8868;-74
2023/04/02 08:02:53;;;;;;;;;5.00;5.00;;;;;11.25;51.37;98663.56;5066421;28;8862;-77
2023/04/02 08:05:22;;;;;;;;;6.40;6.40;;;;;12.06;53.24;98666.56;5057088;28;8971;-74
2023/04/02 08:07:55;;;;;;;;;13.60;10.40;;;;;12.42;51.77;98664.16;5084654;28;8859;-74
2023/04/02 08:10:25;;;;;;;;;7.60;6.60;;;;;11.97;48.32;98665.16;5076363;28;8846;-75
2023/04/02 08:12:54;;;;;;;;;10.00;10.00;;;;;11.20;51.42;98669.91;5075474;28;8859;-73
2023/04/02 08:15:24;;;;;;;;;8.80;8.80;;;;;11.70;54.89;98675.00;5091503;28;8892;-73
2023/04/02 08:17:53;;;;;;;;;5.60;5.60;;;;;11.27;50.36;98677.50;5071330;28;8947;-72
2023/04/02 08:20:23;;;;;;;;;9.60;9.60;;;;;10.57;52.88;98684.38;5067630;28;10806;-76
2023/04/02 08:22:52;;;;;;;;;16.20;12.40;;;;;10.95;54.29;98684.84;5069440;28;8947;-76
2023/04/02 08:25:21;;;;;;;;;24.20;22.20;;;;;11.49;54.22;98681.97;5068984;28;8854;-75
2023/04/02 08:27:50;;;;;;;;;14.00;12.60;;;;;11.64;51.55;98684.00;5068823;28;8858;-75
2023/04/02 08:30:19;;;;;;;;;13.40;10.80;;;;;12.12;52.17;98680.31;5088558;28;8936;-74
2023/04/02 08:32:49;;;;;;;;;12.40;10.80;;;;;11.65;52.47;98682.22;5069706;28;8910;-77
2023/04/02 08:35:18;;;;;;;;;7.20;7.20;;;;;11.81;50.92;98683.34;5067580;28;8874;-76
2023/04/02 08:37:47;;;;;;;;;10.60;10.40;;;;;11.62;50.73;98691.09;5053573;28;8856;-75
2023/04/02 08:40:22;;;;;;;;;11.80;11.20;;;;;10.63;53.12;98696.44;5067734;28;8842;-75
2023/04/02 08:43:05;;;;;;;;;15.60;13.60;;;;;10.64;52.43;98692.06;5082073;28;8955;-75
2023/04/02 08:45:50;;;;;;;;;14.20;12.60;;;;;10.85;52.00;98693.97;5084245;28;9525;-75
2023/04/02 08:48:22;;;;;;;;;12.40;10.60;;;;;10.61;53.82;98690.38;5097095;28;8989;-74
2023/04/02 08:50:51;;;;;;;;;12.20;10.40;;;;;10.88;53.20;98690.34;5084457;28;8951;-76
2023/04/02 08:53:23;;;;;;;;;15.00;13.60;;;;;11.06;52.31;98689.69;5087645;28;8863;-75
2023/04/02 08:55:58;;;;;;;;;14.00;14.00;;;;;10.58;54.01;98701.88;5089175;28;8868;-74
2023/04/02 08:58:40;;;;;;;;;11.20;11.20;;;;;10.32;54.56;98697.50;5079960;28;8870;-75
2023/04/02 09:01:21;;;;;;;;;14.40;13.40;;;;;10.69;55.03;98692.75;5068508;28;8854;-76
2023/04/02 09:03:55;;;;;;;;;17.00;16.00;;;;;11.31;55.24;98688.78;5054362;28;9015;-73
2023/04/02 09:06:25;;;;;;;;;20.20;18.00;;;;;11.22;53.75;98684.75;5070667;28;8834;-74
2023/04/02 09:08:55;;;;;;;;;13.80;13.80;;;;;10.67;52.94;98690.19;5102746;28;8854;-74
2023/04/02 09:11:27;;;;;;;;;29.75;29.00;;;;;10.92;54.22;98692.84;5090047;28;8846;-73
2023/04/02 09:13:59;;;;;;;;;12.60;12.60;;;;;10.72;51.74;98697.91;5074417;28;8872;-74
2023/04/02 09:16:51;;;;;;;;;12.20;12.20;;;;;10.70;52.69;98705.84;5073699;28;8874;-74
2023/04/02 09:19:25;;;;;;;;;12.80;11.80;;;;;11.08;52.14;98698.38;5052786;28;8842;-76
2023/04/02 09:22:06;;;;;;;;;14.20;13.40;;;;;10.75;53.35;98693.44;5002670;28;8888;-75
2023/04/02 09:24:36;;;;;;;;;9.20;8.80;;;;;11.46;51.92;98687.34;5024763;28;8905;-75
2023/04/02 09:27:18;;;;;;;;;10.80;10.00;;;;;11.26;50.71;98688.97;5048581;28;8839;-76
2023/04/02 09:29:49;;;;;;;;;6.40;6.40;;;;;10.93;49.28;98696.31;5036743;28;8886;-73
2023/04/02 09:32:48;;;;;;;;;9.00;8.80;;;;;10.58;51.07;98708.91;5010861;28;8860;-74
2023/04/02 09:35:21;;;;;;;;;10.80;9.00;;;;;11.22;50.71;98697.88;4968724;28;8846;-77
2023/04/02 09:38:20;;;;;;;;;6.20;6.20;;;;;11.42;50.10;98685.75;4990202;28;9077;-75
2023/04/02 09:40:58;;;;;;;;;10.00;10.00;;;;;11.39;49.97;98686.72;4939844;28;8866;-76
2023/04/02 09:43:29;;;;;;;;;33.40;30.00;;;;;11.55;49.55;98684.34;4997406;28;8862;-76
2023/04/02 09:46:01;;;;;;;;;10.20;9.80;;;;;12.19;50.23;98678.31;4981228;28;8846;-76
2023/04/02 09:48:34;;;;;;;;;8.20;8.20;;;;;12.38;49.01;98677.56;4971377;28;8947;-77
2023/04/02 09:51:14;;;;;;;;;6.20;2.80;;;;;11.96;48.54;98679.25;4987552;28;8888;-74
2023/04/02 09:53:44;;;;;;;;;10.20;9.80;;;;;12.30;48.21;98694.53;4986854;28;8881;-76
2023/04/02 09:56:16;;;;;;;;;9.00;9.00;;;;;12.80;48.79;98689.78;5011927;28;8969;-75
2023/04/02 09:59:01;;;;;;;;;10.00;10.00;;;;;13.20;47.35;98688.88;5049689;28;9032;-75
2023/04/02 10:01:32;;;;;;;;;9.40;9.40;;;;;12.32;48.45;98694.47;5012069;28;9053;-77
2023/04/02 10:04:04;;;;;;;;;9.60;9.60;;;;;12.40;48.53;98696.78;5041351;28;8848;-76
2023/04/02 10:06:35;;;;;;;;;11.80;10.40;;;;;12.01;48.65;98694.88;5024792;28;10048;-78
2023/04/02 10:09:21;;;;;;;;;8.60;8.60;;;;;11.96;49.14;98695.06;5032902;28;8908;-76
2023/04/02 10:11:51;;;;;;;;;9.20;9.20;;;;;12.57;49.50;98686.38;5061047;28;8855;-76
2023/04/02 10:14:26;;;;;;;;;9.00;8.00;;;;;11.73;48.21;98696.81;5087988;28;8848;-77
2023/04/02 10:16:57;;;;;;;;;9.60;9.60;;;;;11.80;48.81;98693.91;5073373;28;8846;-77
2023/04/02 10:19:32;;;;;;;;;8.40;8.40;;;;;12.06;48.93;98691.13;5044373;28;8878;-77
2023/04/02 10:22:06;;;;;;;;;9.00;8.40;;;;;11.91;49.52;98699.66;5028177;28;8865;-76
2023/04/02 10:24:35;;;;;;;;;9.40;9.40;;;;;12.62;48.37;98688.84;5027482;28;8870;-76
2023/04/02 10:27:16;;;;;;;;;8.40;8.00;;;;;12.02;49.30;98683.44;5036092;28;9107;-74
2023/04/02 10:30:02;;;;;;;;;9.20;8.80;;;;;11.67;49.67;98691.78;5005212;28;8858;-75
2023/04/02 10:32:39;;;;;;;;;9.20;8.80;;;;;12.06;49.20;98683.22;5003941;28;8871;-77
2023/04/02 10:35:17;;;;;;;;;10.80;10.20;;;;;11.82;49.27;98692.97;4981731;28;8872;-77
2023/04/02 10:38:01;;;;;;;;;10.80;10.80;;;;;11.43;50.11;98693.59;4991136;28;8919;-75
2023/04/02 10:40:35;;;;;;;;;11.40;10.00;;;;;11.38;50.18;98706.91;4988266;28;8863;-77
2023/04/02 10:43:37;;;;;;;;;9.20;9.20;;;;;11.91;50.33;98689.13;4999289;28;8864;-77
2023/04/02 10:46:14;;;;;;;;;8.80;8.80;;;;;12.11;50.10;98690.97;4988374;28;9302;-75
2023/04/02 10:48:52;;;;;;;;;9.00;8.60;;;;;12.28;48.05;98691.09;4971989;28;8967;-75
2023/04/02 10:51:38;;;;;;;;;9.80;9.80;;;;;12.84;49.29;98692.25;5018858;28;9006;-78
2023/04/02 10:54:26;;;;;;;;;8.80;8.80;;;;;12.73;47.17;98687.44;5043790;28;8851;-79
2023/04/02 10:57:05;;;;;;;;;11.80;11.60;;;;;12.72;47.48;98687.50;5032734;28;8879;-77
2023/04/02 10:59:38;;;;;;;;;8.00;8.00;;;;;12.45;46.50;98694.81;5028111;28;8840;-76
2023/04/02 11:02:26;;;;;;;;;6.20;6.20;;;;;12.41;46.67;98696.72;5030975;28;8847;-77
2023/04/02 11:04:56;;;;;;;;;7.40;7.40;;;;;12.00;47.75;98701.06;5074132;28;8888;-75
2023/04/02 11:07:36;;;;;;;;;8.80;8.80;;;;;11.88;48.37;98700.66;5116453;28;8931;-74
2023/04/02 11:10:08;;;;;;;;;9.60;9.40;;;;;12.21;48.00;98691.44;5086227;28;8852;-76
2023/04/02 11:12:44;;;;;;;;;10.40;10.40;;;;;12.57;47.47;98693.44;5087121;28;8860;-78
2023/04/02 11:15:16;;;;;;;;;12.20;12.20;;;;;13.33;47.99;98689.19;5087068;28;8871;-76
2023/04/02 11:17:47;;;;;;;;;5.80;5.00;;;;;12.82;45.73;98694.06;5086591;28;8871;-73
2023/04/02 11:20:58;;;;;;;;;8.00;8.00;;;;;12.84;44.71;98686.97;5076941;28;8869;-82
2023/04/02 11:23:30;;;;;;;;;9.40;8.40;;;;;12.71;46.59;98694.56;5049623;28;9002;-76
2023/04/02 11:26:36;;;;;;;;;5.00;5.00;;;;;12.38;46.35;98699.47;5087364;28;9597;-80
2023/04/02 11:29:16;;;;;;;;;9.60;8.60;;;;;12.45;46.00;98700.94;5068702;28;8913;-79
2023/04/02 11:31:46;;;;;;;;;8.00;8.00;;;;;12.82;45.58;98694.06;5059943;28;8863;-80
2023/04/02 11:34:36;;;;;;;;;8.00;8.00;;;;;13.04;44.73;98691.38;5066798;28;8875;-81
2023/04/02 11:37:09;;;;;;;;;4.60;4.20;;;;;13.50;43.19;98683.13;5086202;28;8860;-80
2023/04/02 11:39:58;;;;;;;;;7.60;7.60;;;;;13.16;44.41;98687.31;5075245;28;8863;-80
2023/04/02 11:42:30;;;;;;;;;3.00;3.00;;;;;12.88;44.12;98688.59;5065521;28;8879;-79
2023/04/02 11:45:22;;;;;;;;;5.00;4.20;;;;;13.34;42.85;98672.44;5056191;28;8848;-79
2023/04/02 11:48:28;;;;;;;;;5.80;5.00;;;;;13.25;44.11;98678.16;5038583;28;8883;-78
2023/04/02 11:50:58;;;;;;;;;6.00;6.00;;;;;13.06;44.48;98667.56;5038243;28;8873;-78
2023/04/02 11:53:32;;;;;;;;;4.00;4.00;;;;;12.88;42.90;98664.84;5052157;28;8941;-78
2023/04/02 11:56:22;;;;;;;;;5.20;4.20;;;;;13.56;40.60;98653.78;5050902;28;8886;-78
2023/04/02 11:59:06;;;;;;;;;3.20;3.20;;;;;13.66;39.80;98660.38;5049023;28;8939;-81
2023/04/02 12:01:50;;;;;;;;;3.80;3.60;;;;;13.84;39.27;98666.56;5084792;28;8864;-80
2023/04/02 12:04:34;;;;;;;;;3.00;3.00;;;;;13.88;39.78;98656.69;5035139;28;9605;-78
2023/04/02 12:07:50;;;;;;;;;2.80;2.80;;;;;14.05;39.34;98663.81;5019356;28;9002;-79
2023/04/02 12:10:22;;;;;;;;;6.00;5.00;;;;;14.00;40.59;98657.91;4940568;28;8892;-79
2023/04/02 12:12:51;;;;;;;;;4.80;4.80;;;;;14.71;41.09;98652.50;5011448;28;8856;-80
2023/04/02 12:15:45;;;;;;;;;15.00;15.00;;;;;15.53;39.61;98643.72;5024312;28;8881;-78